createdAt,value
2023-05-09T00:00:45.348Z,92.33
2023-05-09T00:01:45.914Z,92.33
2023-05-09T00:02:46.495Z,92.13
2023-05-09T00:03:46.471Z,91.83
2023-05-09T00:04:47.256Z,91.58
2023-05-09T00:05:47.346Z,91.27
2023-05-09T00:06:47.357Z,91.58
2023-05-09T00:07:47.933Z,91.48
2023-05-09T00:08:48.510Z,91.58
2023-05-09T00:09:49.064Z,91.58
2023-05-09T00:10:49.625Z,91.27
2023-05-09T00:11:50.208Z,91.17
2023-05-09T00:12:50.787Z,91.07
2023-05-09T00:13:50.876Z,90.97
2023-05-09T00:14:50.916Z,91.17
2023-05-09T00:15:51.468Z,91.27
2023-05-09T00:16:52.120Z,91.27
2023-05-09T00:17:52.148Z,90.86
2023-05-09T00:18:52.141Z,91.17
2023-05-09T00:19:52.685Z,91.38
2023-05-09T00:20:53.238Z,91.38
2023-05-09T00:21:53.792Z,91.17
2023-05-09T00:22:54.354Z,91.07
2023-05-09T00:23:54.924Z,91.17
2023-05-09T00:24:55.483Z,91.27
2023-05-09T00:25:56.056Z,91.07
2023-05-09T00:26:56.615Z,91.17
2023-05-09T00:27:57.183Z,91.17
2023-05-09T00:28:57.741Z,91.07
2023-05-09T00:29:58.325Z,91.07
2023-05-09T00:30:58.904Z,90.97
2023-05-09T00:31:59.542Z,90.97
2023-05-09T00:32:59.628Z,91.17
2023-05-09T00:33:59.646Z,91.17
2023-05-09T00:34:59.672Z,91.27
2023-05-09T00:35:59.686Z,91.17
2023-05-09T00:36:59.722Z,91.11
2023-05-09T00:38:00.291Z,90.97
2023-05-09T00:39:00.865Z,91.07
2023-05-09T00:40:01.443Z,90.86
2023-05-09T00:41:02.027Z,90.66
2023-05-09T00:42:02.048Z,91.11
2023-05-09T00:43:02.038Z,91.11
2023-05-09T00:44:02.599Z,90.77
2023-05-09T00:45:03.189Z,90.97
2023-05-09T00:46:03.219Z,91.01
2023-05-09T00:47:03.239Z,91.01
2023-05-09T00:48:03.812Z,90.81
2023-05-09T00:49:04.400Z,90.86
2023-05-09T00:50:04.957Z,90.91
2023-05-09T00:51:05.528Z,91.01
2023-05-09T00:52:06.088Z,91.11
2023-05-09T00:53:06.691Z,91.22
2023-05-09T00:54:09.112Z,91.11
2023-05-09T00:55:06.914Z,91.11
2023-05-09T00:56:07.479Z,91.11
2023-05-09T00:57:08.056Z,91.22
2023-05-09T00:58:08.623Z,91.11
2023-05-09T00:59:09.203Z,90.91
2023-05-09T01:00:09.212Z,90.81
2023-05-09T01:01:09.264Z,90.70
2023-05-09T01:02:09.324Z,90.50
2023-05-09T01:03:09.464Z,90.91
2023-05-09T01:04:09.487Z,90.60
2023-05-09T01:05:09.487Z,90.40
2023-05-09T01:06:10.062Z,90.50
2023-05-09T01:07:10.634Z,90.60
2023-05-09T01:08:11.199Z,90.60
2023-05-09T01:09:11.770Z,90.60
2023-05-09T01:10:12.350Z,90.16
2023-05-09T01:11:12.936Z,90.05
2023-05-09T01:12:12.913Z,90.09
2023-05-09T01:13:13.536Z,90.50
2023-05-09T01:14:13.539Z,90.60
2023-05-09T01:15:14.352Z,90.30
2023-05-09T01:16:14.634Z,90.50
2023-05-09T01:17:14.650Z,90.60
2023-05-09T01:18:14.686Z,90.81
2023-05-09T01:19:14.705Z,90.50
2023-05-09T01:20:15.267Z,90.40
2023-05-09T01:21:15.813Z,90.50
2023-05-09T01:22:16.430Z,90.50
2023-05-09T01:23:16.450Z,90.60
2023-05-09T01:24:17.088Z,90.34
2023-05-09T01:25:17.161Z,91.05
2023-05-09T01:26:17.165Z,91.30
2023-05-09T01:27:17.743Z,91.91
2023-05-09T01:28:18.336Z,92.22
2023-05-09T01:29:18.900Z,92.36
2023-05-09T01:30:19.458Z,92.46
2023-05-09T01:31:20.068Z,92.61
2023-05-09T01:32:20.058Z,92.61
2023-05-09T01:33:20.624Z,92.71
2023-05-09T01:34:21.203Z,92.91
2023-05-09T01:35:21.205Z,93.02
2023-05-09T01:36:21.807Z,93.32
2023-05-09T01:37:21.807Z,93.28
2023-05-09T01:38:22.363Z,92.71
2023-05-09T01:39:22.963Z,93.12
2023-05-09T01:40:23.000Z,93.26
2023-05-09T01:41:23.008Z,93.06
2023-05-09T01:42:23.557Z,93.21
2023-05-09T01:43:24.102Z,93.41
2023-05-09T01:44:24.654Z,93.51
2023-05-09T01:45:25.253Z,93.62
2023-05-09T01:46:25.338Z,93.62
2023-05-09T01:47:25.392Z,94.07
2023-05-09T01:48:25.372Z,94.37
2023-05-09T01:49:25.940Z,94.68
2023-05-09T01:50:26.514Z,94.89
2023-05-09T01:51:27.133Z,94.82
2023-05-09T01:52:27.157Z,95.03
2023-05-09T01:53:27.723Z,95.03
2023-05-09T01:54:28.296Z,95.13
2023-05-09T01:55:28.874Z,95.18
2023-05-09T01:56:29.454Z,95.28
2023-05-09T01:57:30.051Z,95.69
2023-05-09T01:58:30.070Z,95.48
2023-05-09T01:59:30.070Z,95.59
2023-05-09T02:00:30.647Z,95.48
2023-05-09T02:01:30.677Z,95.38
2023-05-09T02:02:31.380Z,95.38
2023-05-09T02:03:31.496Z,95.38
2023-05-09T02:04:31.491Z,95.48
2023-05-09T02:05:32.091Z,95.48
2023-05-09T02:06:32.073Z,95.69
2023-05-09T02:07:32.652Z,95.43
2023-05-09T02:08:33.256Z,95.79
2023-05-09T02:09:33.832Z,95.89
2023-05-09T02:10:34.416Z,95.44
2023-05-09T02:11:34.991Z,95.19
2023-05-09T02:12:35.578Z,94.58
2023-05-09T02:13:35.611Z,94.43
2023-05-09T02:14:36.203Z,94.58
2023-05-09T02:15:36.808Z,94.43
2023-05-09T02:16:37.460Z,94.43
2023-05-09T02:17:37.520Z,94.68
2023-05-09T02:18:37.559Z,94.64
2023-05-09T02:19:38.174Z,94.68
2023-05-09T02:20:38.233Z,94.84
2023-05-09T02:21:38.251Z,94.53
2023-05-09T02:22:38.830Z,94.12
2023-05-09T02:23:39.404Z,93.96
2023-05-09T02:24:39.977Z,94.37
2023-05-09T02:25:40.557Z,94.17
2023-05-09T02:26:41.124Z,94.17
2023-05-09T02:27:41.692Z,94.48
2023-05-09T02:28:42.289Z,94.98
2023-05-09T02:29:42.889Z,94.62
2023-05-09T02:30:43.488Z,94.62
2023-05-09T02:31:43.520Z,94.97
2023-05-09T02:32:43.622Z,95.43
2023-05-09T02:33:43.707Z,95.43
2023-05-09T02:34:43.710Z,95.32
2023-05-09T02:35:44.313Z,95.12
2023-05-09T02:36:44.909Z,95.94
2023-05-09T02:37:45.524Z,95.73
2023-05-09T02:38:45.751Z,95.67
2023-05-09T02:39:45.968Z,95.88
2023-05-09T02:40:45.965Z,95.78
2023-05-09T02:41:46.551Z,95.98
2023-05-09T02:42:47.114Z,96.08
2023-05-09T02:43:47.681Z,95.67
2023-05-09T02:44:48.278Z,95.67
2023-05-09T02:45:48.392Z,95.73
2023-05-09T02:46:48.419Z,95.02
2023-05-09T02:47:49.018Z,95.32
2023-05-09T02:48:49.025Z,95.32
2023-05-09T02:49:49.629Z,95.84
2023-05-09T02:50:49.675Z,95.89
2023-05-09T02:51:49.702Z,95.38
2023-05-09T02:52:50.327Z,94.97
2023-05-09T02:53:50.328Z,95.07
2023-05-09T02:54:50.943Z,95.18
2023-05-09T02:55:50.952Z,95.28
2023-05-09T02:56:51.556Z,94.10
2023-05-09T02:57:58.962Z,94.75
2023-05-09T02:58:51.831Z,95.37
2023-05-09T02:59:52.417Z,95.57
2023-05-09T03:00:53.016Z,95.88
2023-05-09T03:01:53.677Z,95.94
2023-05-09T03:02:53.837Z,95.32
2023-05-09T03:03:53.885Z,94.92
2023-05-09T03:04:54.472Z,94.60
2023-05-09T03:05:55.080Z,94.30
2023-05-09T03:06:55.087Z,94.85
2023-05-09T03:07:55.705Z,95.06
2023-05-09T03:08:55.726Z,94.75
2023-05-09T03:09:55.733Z,94.65
2023-05-09T03:10:56.343Z,95.10
2023-05-09T03:11:56.361Z,95.62
2023-05-09T03:12:57.108Z,95.72
2023-05-09T03:13:57.232Z,96.23
2023-05-09T03:14:57.226Z,96.64
2023-05-09T03:15:57.861Z,96.54
2023-05-09T03:16:57.886Z,95.88
2023-05-09T03:17:58.515Z,95.78
2023-05-09T03:18:58.555Z,95.84
2023-05-09T03:20:00.547Z,95.63
2023-05-09T03:20:59.437Z,94.97
2023-05-09T03:22:00.039Z,94.56
2023-05-09T03:23:00.084Z,94.87
2023-05-09T03:24:00.132Z,95.18
2023-05-09T03:25:00.157Z,94.82
2023-05-09T03:26:00.775Z,94.42
2023-05-09T03:27:00.794Z,94.21
2023-05-09T03:28:01.417Z,93.80
2023-05-09T03:29:01.448Z,93.91
2023-05-09T03:30:02.051Z,93.80
2023-05-09T03:31:02.696Z,94.01
2023-05-09T03:32:02.720Z,94.42
2023-05-09T03:33:03.354Z,94.17
2023-05-09T03:34:03.375Z,94.07
2023-05-09T03:35:03.403Z,93.76
2023-05-09T03:36:04.010Z,93.45
2023-05-09T03:37:04.621Z,93.19
2023-05-09T03:38:05.229Z,93.05
2023-05-09T03:39:05.834Z,93.25
2023-05-09T03:40:06.508Z,93.25
2023-05-09T03:41:06.559Z,93.15
2023-05-09T03:42:07.168Z,92.64
2023-05-09T03:43:07.753Z,93.40
2023-05-09T03:44:08.340Z,93.70
2023-05-09T03:45:08.366Z,94.21
2023-05-09T03:46:08.957Z,94.21
2023-05-09T03:47:09.543Z,94.11
2023-05-09T03:48:10.188Z,94.21
2023-05-09T03:49:10.261Z,94.37
2023-05-09T03:50:10.869Z,94.17
2023-05-09T03:51:10.893Z,93.31
2023-05-09T03:52:11.504Z,93.15
2023-05-09T03:53:12.091Z,93.45
2023-05-09T03:54:12.680Z,93.45
2023-05-09T03:55:13.014Z,93.15
2023-05-09T03:56:13.203Z,93.00
2023-05-09T03:57:13.778Z,92.90
2023-05-09T03:58:14.401Z,92.69
2023-05-09T03:59:14.436Z,93.05
2023-05-09T04:00:14.555Z,93.45
2023-05-09T04:01:14.649Z,93.55
2023-05-09T04:02:14.723Z,93.55
2023-05-09T04:03:14.869Z,93.15
2023-05-09T04:04:15.047Z,92.74
2023-05-09T04:05:15.470Z,92.90
2023-05-09T04:06:15.717Z,92.74
2023-05-09T04:07:15.748Z,92.74
2023-05-09T04:08:16.355Z,93.35
2023-05-09T04:09:16.383Z,93.45
2023-05-09T04:10:16.966Z,93.45
2023-05-09T04:11:17.565Z,93.00
2023-05-09T04:12:18.185Z,92.80
2023-05-09T04:13:18.248Z,92.35
2023-05-09T04:14:18.324Z,92.19
2023-05-09T04:15:18.341Z,92.49
2023-05-09T04:16:18.970Z,92.59
2023-05-09T04:17:19.025Z,92.94
2023-05-09T04:18:19.039Z,93.41
2023-05-09T04:19:20.340Z,93.66
2023-05-09T04:20:19.776Z,93.80
2023-05-09T04:21:19.788Z,93.80
2023-05-09T04:22:19.804Z,94.15
2023-05-09T04:23:20.394Z,94.77
2023-05-09T04:24:20.976Z,95.18
2023-05-09T04:25:21.562Z,95.48
2023-05-09T04:26:22.149Z,95.22
2023-05-09T04:27:22.773Z,95.32
2023-05-09T04:28:22.802Z,95.32
2023-05-09T04:29:22.829Z,95.43
2023-05-09T04:30:22.855Z,95.53
2023-05-09T04:31:22.959Z,95.38
2023-05-09T04:32:23.078Z,94.73
2023-05-09T04:33:23.103Z,94.21
2023-05-09T04:34:23.138Z,93.80
2023-05-09T04:35:23.363Z,93.45
2023-05-09T04:36:23.529Z,92.84
2023-05-09T04:37:23.545Z,92.74
2023-05-09T04:38:23.568Z,93.05
2023-05-09T04:39:23.595Z,93.25
2023-05-09T04:40:25.446Z,93.25
2023-05-09T04:41:23.768Z,93.25
2023-05-09T04:42:23.793Z,92.94
2023-05-09T04:43:23.809Z,92.49
2023-05-09T04:44:24.429Z,92.29
2023-05-09T04:45:24.478Z,91.88
2023-05-09T04:46:25.726Z,91.74
2023-05-09T04:47:24.777Z,91.83
2023-05-09T04:48:24.813Z,91.74
2023-05-09T04:49:24.832Z,92.04
2023-05-09T04:50:24.848Z,91.78
2023-05-09T04:51:25.438Z,92.19
2023-05-09T04:52:26.061Z,93.05
2023-05-09T04:53:26.100Z,93.19
2023-05-09T04:54:26.123Z,93.95
2023-05-09T04:55:26.152Z,94.46
2023-05-09T04:56:26.747Z,94.67
2023-05-09T04:57:26.762Z,94.67
2023-05-09T04:58:27.417Z,94.51
2023-05-09T04:59:27.423Z,94.77
